Time;durP1;ratioP1;P1;durP2;ratioP2;P2;SDS_P1;SDS_P2;PMS_P1;PMS_P2;Temp;Humidity;BMP_temperature;BMP_pressure;BME280_temperature;BME280_humidity;BME280_pressure;Samples;Min_cycle;Max_cycle;Signal;HPM_P1;HPM_P2
2023/10/04 00:00:49;;;;;;;11.02;6.13;;;;;;;15.99;55.17;100636.25;5122950;27;20044;-63
2023/10/04 00:03:15;;;;;;;14.70;6.50;;;;;;;15.86;54.29;100623.47;5122692;27;20062;-63
2023/10/04 00:05:41;;;;;;;13.73;6.30;;;;;;;15.94;53.75;100629.59;5122036;27;20043;-62
2023/10/04 00:08:07;;;;;;;13.27;5.72;;;;;;;15.93;53.72;100624.44;5122687;27;20033;-62
2023/10/04 00:10:33;;;;;;;12.30;6.57;;;;;;;15.90;54.06;100624.78;5122194;27;20035;-63
2023/10/04 00:12:58;;;;;;;15.63;6.78;;;;;;;15.86;53.57;100618.13;5122014;27;20023;-63
2023/10/04 00:15:29;;;;;;;11.43;6.53;;;;;;;15.79;53.69;100619.81;5121875;28;20364;-62
2023/10/04 00:17:55;;;;;;;8.65;6.07;;;;;;;15.63;53.83;100610.88;5121604;28;20089;-63
2023/10/04 00:20:21;;;;;;;12.48;5.97;;;;;;;15.49;54.57;100616.88;5121402;27;20034;-62
2023/10/04 00:22:47;;;;;;;9.68;6.63;;;;;;;15.34;55.50;100619.44;5131758;27;20036;-63
2023/10/04 00:25:20;;;;;;;9.90;5.55;;;;;;;15.43;55.66;100617.56;5123233;28;20043;-62
2023/10/04 00:27:47;;;;;;;9.48;7.03;;;;;;;15.24;56.23;100610.78;5122599;27;20067;-62
2023/10/04 00:30:18;;;;;;;13.70;6.32;;;;;;;15.31;55.42;100614.44;5121348;28;20053;-63
2023/10/04 00:32:46;;;;;;;14.57;6.78;;;;;;;15.37;55.15;100617.44;5124806;28;20035;-62
2023/10/04 00:35:17;;;;;;;14.70;6.32;;;;;;;15.40;54.92;100609.09;5134940;27;20255;-62
2023/10/04 00:37:46;;;;;;;15.82;6.70;;;;;;;15.41;55.08;100611.56;5121998;28;20034;-63
2023/10/04 00:40:18;;;;;;;12.82;7.10;;;;;;;15.26;55.86;100607.97;5121762;28;20031;-63
2023/10/04 00:42:47;;;;;;;12.25;7.35;;;;;;;15.34;56.31;100614.09;5122549;27;20314;-63
2023/10/04 00:45:15;;;;;;;13.77;6.95;;;;;;;15.37;55.54;100612.94;5125601;27;20047;-63
2023/10/04 00:47:44;;;;;;;11.00;6.40;;;;;;;15.40;55.06;100601.91;5134649;27;20038;-63
2023/10/04 00:50:18;;;;;;;11.20;6.78;;;;;;;15.19;55.46;100613.16;5124526;27;20044;-63
2023/10/04 00:53:05;;;;;;;11.80;6.85;;;;;;;15.15;56.16;100603.00;5125948;27;20346;-62
2023/10/04 00:55:42;;;;;;;12.15;6.15;;;;;;;15.23;55.40;100606.47;5125045;27;20075;-62
2023/10/04 00:58:10;;;;;;;12.73;6.25;;;;;;;15.19;55.30;100601.66;5125508;27;20114;-62
2023/10/04 01:00:36;;;;;;;11.63;6.35;;;;;;;15.11;55.17;100591.81;5134774;27;20050;-62
2023/10/04 01:03:03;;;;;;;13.38;6.53;;;;;;;15.22;54.99;100604.81;5125379;27;20028;-62
2023/10/04 01:05:29;;;;;;;14.13;6.60;;;;;;;15.26;54.90;100595.44;5133434;27;20041;-62
2023/10/04 01:07:56;;;;;;;13.48;6.72;;;;;;;15.24;54.90;100605.47;5125381;27;20028;-62
2023/10/04 01:10:26;;;;;;;14.05;6.43;;;;;;;15.14;54.94;100604.00;5125310;27;20112;-63
2023/10/04 01:12:52;;;;;;;14.18;6.05;;;;;;;15.13;55.27;100602.31;5125537;27;20039;-63
2023/10/04 01:15:31;;;;;;;12.27;6.20;;;;;;;15.15;54.61;100603.00;5125927;27;20039;-63
2023/10/04 01:17:58;;;;;;;13.43;6.68;;;;;;;15.10;55.14;100602.66;5125285;27;20031;-63
2023/10/04 01:20:24;;;;;;;9.68;5.57;;;;;;;14.99;54.19;100620.69;5124818;27;20039;-62
2023/10/04 01:22:51;;;;;;;11.70;6.28;;;;;;;14.97;54.63;100614.69;5125885;27;20028;-62
2023/10/04 01:25:16;;;;;;;11.05;5.63;;;;;;;14.87;55.55;100608.72;5106752;28;20046;-62
2023/10/04 01:27:44;;;;;;;13.93;5.93;;;;;;;14.86;54.25;100608.88;5125812;27;20036;-63
2023/10/04 01:30:10;;;;;;;11.15;6.43;;;;;;;14.79;54.41;100616.72;5125055;27;20336;-62
2023/10/04 01:32:36;;;;;;;12.52;6.20;;;;;;;14.78;55.34;100611.56;5125468;27;20028;-63
2023/10/04 01:35:02;;;;;;;10.73;6.38;;;;;;;14.77;54.85;100610.72;5125048;27;20211;-63
2023/10/04 01:37:31;;;;;;;13.60;6.63;;;;;;;14.75;55.06;100606.56;5124284;27;20270;-62
2023/10/04 01:39:56;;;;;;;11.73;6.28;;;;;;;14.69;55.28;100611.56;5127572;27;20039;-62
2023/10/04 01:42:22;;;;;;;13.52;7.00;;;;;;;14.68;57.60;100617.91;5133441;27;20237;-62
2023/10/04 01:44:47;;;;;;;13.38;7.15;;;;;;;14.72;58.33;100620.22;5130403;27;20088;-62
2023/10/04 01:47:13;;;;;;;14.98;7.13;;;;;;;14.73;58.56;100620.06;5128359;27;20035;-62
2023/10/04 01:49:38;;;;;;;13.82;7.57;;;;;;;14.62;59.29;100615.91;5130334;27;20027;-62
2023/10/04 01:52:05;;;;;;;11.55;6.82;;;;;;;14.66;59.47;100613.72;5124335;27;20036;-62
2023/10/04 01:54:31;;;;;;;14.68;7.28;;;;;;;14.57;59.67;100618.22;5124906;27;20047;-62
2023/10/04 01:56:56;;;;;;;12.30;6.60;;;;;;;14.38;60.49;100621.16;5124551;27;20110;-62
2023/10/04 01:59:22;;;;;;;14.50;7.10;;;;;;;14.35;60.95;100614.31;5125425;27;20240;-62
2023/10/04 02:01:47;;;;;;;9.95;6.18;;;;;;;14.43;60.64;100610.88;5125067;27;20337;-64
2023/10/04 02:04:13;;;;;;;11.90;6.53;;;;;;;14.49;60.24;100606.69;5124079;27;20047;-63
2023/10/04 02:06:39;;;;;;;13.73;6.75;;;;;;;14.45;60.48;100613.38;5123660;27;20201;-62
2023/10/04 02:09:09;;;;;;;13.38;7.38;;;;;;;14.44;60.03;100617.03;5131620;27;20049;-63
2023/10/04 02:11:36;;;;;;;15.68;6.55;;;;;;;14.49;58.33;100620.84;5124191;27;20791;-63
2023/10/04 02:14:03;;;;;;;11.95;6.88;;;;;;;14.32;59.18;100613.81;5124088;27;20036;-63
2023/10/04 02:16:29;;;;;;;19.08;7.75;;;;;;;14.41;59.90;100614.66;5122858;27;20333;-63
2023/10/04 02:18:56;;;;;;;14.05;7.40;;;;;;;14.46;59.74;100615.88;5123983;27;20027;-63
2023/10/04 02:21:24;;;;;;;12.88;7.47;;;;;;;14.45;59.12;100616.03;5123325;27;20039;-62
2023/10/04 02:23:49;;;;;;;15.88;7.75;;;;;;;14.48;58.92;100613.03;5123998;27;20030;-62
2023/10/04 02:26:15;;;;;;;11.63;6.43;;;;;;;14.44;58.16;100612.53;5126302;27;20142;-62
2023/10/04 02:28:40;;;;;;;15.15;6.72;;;;;;;14.42;57.20;100611.88;5127846;27;20099;-62
2023/10/04 02:31:06;;;;;;;11.65;6.93;;;;;;;14.37;56.65;100616.81;5122870;27;20039;-62
2023/10/04 02:33:33;;;;;;;12.68;6.60;;;;;;;14.33;56.86;100616.31;5122938;27;20039;-62
2023/10/04 02:36:00;;;;;;;13.23;7.00;;;;;;;14.29;57.90;100608.81;5123112;27;20036;-62
2023/10/04 02:38:26;;;;;;;14.82;7.00;;;;;;;14.31;57.73;100606.81;5123348;27;20070;-63
2023/10/04 02:40:53;;;;;;;10.05;6.07;;;;;;;14.30;57.30;100615.81;5134483;27;20274;-63
2023/10/04 02:43:25;;;;;;;11.68;6.35;;;;;;;14.29;57.74;100609.66;5124484;27;20036;-63
2023/10/04 02:45:52;;;;;;;11.15;6.82;;;;;;;14.19;58.62;100605.47;5123815;27;20283;-64
2023/10/04 02:48:25;;;;;;;12.38;7.05;;;;;;;14.25;59.17;100613.66;5123924;27;20734;-64
2023/10/04 02:50:52;;;;;;;13.95;6.57;;;;;;;14.20;59.15;100607.16;5133491;27;20039;-64
2023/10/04 02:53:19;;;;;;;11.75;6.28;;;;;;;14.17;59.09;100610.97;5132080;27;20094;-63
2023/10/04 02:55:46;;;;;;;12.32;6.70;;;;;;;14.26;57.11;100609.16;5129479;27;20106;-64
2023/10/04 02:58:13;;;;;;;14.75;7.07;;;;;;;14.27;57.60;100605.50;5131573;27;20571;-63
2023/10/04 03:00:46;;;;;;;13.68;6.50;;;;;;;14.31;59.55;100604.16;5131324;27;20039;-63
2023/10/04 03:03:19;;;;;;;16.15;7.13;;;;;;;14.18;60.22;100601.16;5122830;27;20035;-63
2023/10/04 03:05:47;;;;;;;14.68;7.38;;;;;;;14.22;61.42;100603.31;5122238;27;20046;-64
2023/10/04 03:08:13;;;;;;;14.05;8.48;;;;;;;14.26;62.01;100604.66;5122924;27;20260;-63
2023/10/04 03:10:40;;;;;;;15.77;8.07;;;;;;;14.18;62.34;100598.50;5123755;27;20031;-64
2023/10/04 03:13:12;;;;;;;13.93;7.53;;;;;;;14.31;61.93;100596.16;5131849;27;20186;-64
2023/10/04 03:15:39;;;;;;;11.65;6.93;;;;;;;14.41;60.88;100614.66;5131808;27;20255;-63
2023/10/04 03:18:13;;;;;;;15.63;7.75;;;;;;;14.34;60.94;100603.84;5122522;27;20085;-64
2023/10/04 03:20:54;;;;;;;12.60;7.88;;;;;;;14.34;61.26;100603.84;5124748;27;20035;-64
2023/10/04 03:23:26;;;;;;;15.07;8.02;;;;;;;14.36;61.23;100600.00;5127907;27;20035;-64
2023/10/04 03:25:53;;;;;;;11.77;6.78;;;;;;;14.39;60.41;100614.81;5124481;27;20394;-64
2023/10/04 03:28:20;;;;;;;14.15;7.85;;;;;;;14.43;59.05;100610.03;5123177;27;20030;-63
2023/10/04 03:30:45;;;;;;;9.50;6.30;;;;;;;14.46;58.31;100607.88;5123283;27;20042;-63
2023/10/04 03:33:11;;;;;;;15.50;7.25;;;;;;;14.47;58.39;100611.38;5131823;27;20023;-64
2023/10/04 03:35:39;;;;;;;15.77;8.32;;;;;;;14.36;60.10;100608.00;5122517;27;20267;-63
2023/10/04 03:38:08;;;;;;;25.17;7.85;;;;;;;14.27;61.00;100610.81;5121861;27;20080;-64
2023/10/04 03:40:34;;;;;;;17.50;7.07;;;;;;;14.21;61.31;100609.66;5121089;27;20126;-64
2023/10/04 03:43:02;;;;;;;13.48;6.93;;;;;;;14.20;61.61;100599.16;5121097;27;20321;-64
2023/10/04 03:45:28;;;;;;;15.55;7.03;;;;;;;14.27;61.62;100605.50;5131967;27;20038;-64
2023/10/04 03:47:54;;;;;;;11.60;6.53;;;;;;;14.19;61.71;100602.81;5123652;27;20325;-63
2023/10/04 03:50:19;;;;;;;15.15;7.07;;;;;;;14.16;62.46;100608.47;5127605;27;20067;-63
2023/10/04 03:52:47;;;;;;;10.85;6.43;;;;;;;14.15;61.89;100610.31;5124920;27;20024;-64
2023/10/04 03:55:14;;;;;;;15.57;7.40;;;;;;;14.07;62.72;100612.97;5121608;27;20058;-63
2023/10/04 03:57:42;;;;;;;13.48;6.97;;;;;;;14.04;62.57;100607.97;5121451;27;20332;-64
2023/10/04 04:00:17;;;;;;;12.65;6.95;;;;;;;14.00;62.79;100603.94;5122287;27;20251;-64
2023/10/04 04:02:43;;;;;;;14.30;7.38;;;;;;;14.04;62.66;100603.47;5122233;27;20102;-64
2023/10/04 04:05:10;;;;;;;13.13;6.90;;;;;;;14.00;62.50;100609.28;5121951;27;20039;-64
2023/10/04 04:07:36;;;;;;;13.73;7.10;;;;;;;13.90;63.23;100606.75;5122752;27;20054;-64
2023/10/04 04:10:07;;;;;;;18.10;7.88;;;;;;;13.96;62.97;100605.28;5122094;27;20058;-64
2023/10/04 04:12:34;;;;;;;15.15;7.60;;;;;;;13.84;62.77;100602.09;5122695;27;20065;-64
2023/10/04 04:15:01;;;;;;;18.80;8.27;;;;;;;13.73;63.43;100603.22;5130798;27;20077;-64
2023/10/04 04:17:27;;;;;;;15.85;7.43;;;;;;;13.71;63.92;100604.38;5120929;27;20039;-64
2023/10/04 04:19:53;;;;;;;14.13;6.97;;;;;;;13.70;63.69;100603.53;5126409;27;20035;-64
2023/10/04 04:22:23;;;;;;;16.65;7.50;;;;;;;13.75;63.74;100600.41;5126118;27;20199;-64
2023/10/04 04:24:52;;;;;;;17.60;7.55;;;;;;;13.71;63.67;100601.72;5121796;27;20076;-64
2023/10/04 04:27:22;;;;;;;16.40;8.02;;;;;;;13.72;63.61;100595.41;5121698;27;20054;-64
2023/10/04 04:29:52;;;;;;;14.70;6.55;;;;;;;13.77;63.78;100590.41;5131613;27;20080;-64
2023/10/04 04:32:26;;;;;;;16.65;7.53;;;;;;;13.83;63.58;100596.91;5129976;28;20032;-63
2023/10/04 04:34:53;;;;;;;18.30;7.95;;;;;;;13.83;63.03;100600.41;5129006;28;20077;-64
2023/10/04 04:37:19;;;;;;;15.60;7.30;;;;;;;13.81;63.50;100597.09;5120636;28;20438;-63
2023/10/04 04:39:45;;;;;;;20.30;8.90;;;;;;;13.90;63.08;100604.09;5121081;28;20023;-64
2023/10/04 04:42:11;;;;;;;19.83;8.10;;;;;;;13.86;62.96;100599.25;5121248;28;20127;-64
2023/10/04 04:44:42;;;;;;;17.23;7.90;;;;;;;13.84;63.32;100604.75;5121168;28;20349;-63
2023/10/04 04:47:10;;;;;;;15.43;7.13;;;;;;;13.82;63.53;100604.06;5121416;28;20739;-63
2023/10/04 04:49:37;;;;;;;16.85;7.95;;;;;;;13.98;63.26;100612.09;5121178;28;20332;-64
2023/10/04 04:52:05;;;;;;;17.60;8.00;;;;;;;13.98;62.94;100609.44;5120718;28;20035;-64
2023/10/04 04:54:30;;;;;;;20.27;8.00;;;;;;;14.02;62.59;100616.09;5122114;28;20050;-64
2023/10/04 04:56:56;;;;;;;17.58;8.15;;;;;;;13.80;63.49;100621.19;5122233;28;20075;-65
2023/10/04 04:59:24;;;;;;;17.80;7.90;;;;;;;13.88;63.34;100619.41;5122027;28;20066;-64
2023/10/04 05:01:51;;;;;;;16.63;7.72;;;;;;;14.00;63.06;100617.25;5122046;28;20331;-64
2023/10/04 05:04:18;;;;;;;19.75;8.52;;;;;;;14.11;62.94;100622.28;5120078;28;20094;-64
2023/10/04 05:06:44;;;;;;;18.27;7.78;;;;;;;13.96;62.97;100621.25;5122971;28;20070;-63
2023/10/04 05:09:10;;;;;;;17.80;7.22;;;;;;;14.01;63.12;100616.28;5122227;28;20031;-64
2023/10/04 05:11:36;;;;;;;20.27;8.27;;;;;;;14.12;63.09;100613.28;5129091;28;20036;-64
2023/10/04 05:14:03;;;;;;;13.48;7.13;;;;;;;14.17;62.98;100620.78;5122133;28;20031;-64
2023/10/04 05:16:30;;;;;;;17.92;7.20;;;;;;;14.32;62.74;100619.16;5121687;28;20034;-64
2023/10/04 05:18:55;;;;;;;19.02;8.38;;;;;;;14.31;62.56;100625.47;5121693;28;20031;-64
2023/10/04 05:21:21;;;;;;;20.60;8.60;;;;;;;14.25;63.13;100616.31;5121330;28;20318;-64
2023/10/04 05:23:46;;;;;;;16.23;7.53;;;;;;;14.27;63.23;100624.97;5121718;28;20034;-64
2023/10/04 05:26:12;;;;;;;16.67;7.72;;;;;;;14.23;62.84;100625.47;5121296;28;20038;-65
2023/10/04 05:28:38;;;;;;;14.38;7.75;;;;;;;14.19;63.65;100632.94;5121469;28;20023;-64
2023/10/04 05:31:04;;;;;;;15.35;8.15;;;;;;;14.30;63.58;100627.31;5124434;27;20045;-64
2023/10/04 05:33:30;;;;;;;16.17;7.57;;;;;;;14.47;62.87;100635.34;5124822;27;20039;-63
2023/10/04 05:35:56;;;;;;;21.60;8.85;;;;;;;14.56;62.46;100635.19;5125145;27;20043;-64
2023/10/04 05:38:23;;;;;;;14.30;7.72;;;;;;;14.76;62.40;100633.06;5124742;27;20061;-64
2023/10/04 05:40:49;;;;;;;25.35;8.75;;;;;;;14.92;62.20;100635.69;5126039;27;20035;-64
2023/10/04 05:43:16;;;;;;;18.67;9.50;;;;;;;15.12;61.72;100641.50;5125204;27;20044;-65
2023/10/04 05:45:43;;;;;;;17.95;8.45;;;;;;;15.39;60.85;100647.44;5132619;27;20360;-64
2023/10/04 05:48:12;;;;;;;16.45;9.20;;;;;;;15.46;60.05;100648.44;5133736;27;20046;-64
2023/10/04 05:50:39;;;;;;;17.80;8.50;;;;;;;15.59;59.93;100646.91;5124662;27;20352;-65
2023/10/04 05:53:06;;;;;;;16.38;8.32;;;;;;;15.87;59.06;100644.66;5124074;27;20134;-64
2023/10/04 05:55:35;;;;;;;20.10;8.55;;;;;;;15.98;58.65;100647.94;5123993;27;20337;-64
2023/10/04 05:58:04;;;;;;;18.23;8.95;;;;;;;16.01;58.85;100652.94;5122902;27;20040;-64
2023/10/04 06:00:40;;;;;;;20.92;8.82;;;;;;;16.01;58.85;100651.09;5127295;27;20042;-64
2023/10/04 06:03:07;;;;;;;19.38;9.15;;;;;;;16.26;58.56;100647.28;5124571;27;20039;-64
2023/10/04 06:05:35;;;;;;;21.63;11.10;;;;;;;16.45;57.49;100651.31;5122777;27;20060;-64
2023/10/04 06:08:15;;;;;;;20.52;9.93;;;;;;;16.68;57.31;100647.88;5122704;27;20208;-64
2023/10/04 06:10:42;;;;;;;18.05;8.80;;;;;;;16.86;56.24;100643.84;5122667;27;20071;-64
2023/10/04 06:13:11;;;;;;;19.33;8.40;;;;;;;17.09;55.26;100651.00;5123098;27;20384;-63
2023/10/04 06:15:48;;;;;;;14.88;8.52;;;;;;;17.35;54.78;100650.56;5133387;27;20363;-64
2023/10/04 06:18:14;;;;;;;18.58;9.52;;;;;;;17.47;53.94;100647.25;5123823;27;20245;-64
2023/10/04 06:20:40;;;;;;;23.38;13.00;;;;;;;17.60;53.03;100654.63;5129191;27;20046;-64
2023/10/04 06:23:11;;;;;;;18.88;10.18;;;;;;;17.70;52.71;100649.88;5127357;27;20106;-65
2023/10/04 06:25:47;;;;;;;18.42;8.13;;;;;;;17.96;51.31;100652.06;5134038;27;20044;-65
2023/10/04 06:28:13;;;;;;;13.40;7.25;;;;;;;17.99;50.93;100645.50;5124475;27;20045;-63
2023/10/04 06:30:40;;;;;;;13.57;6.65;;;;;;;18.20;50.22;100648.22;5125086;27;20425;-63
2023/10/04 06:33:07;;;;;;;14.38;7.03;;;;;;;18.36;50.25;100647.97;5105449;27;20274;-64
2023/10/04 06:35:33;;;;;;;18.05;6.95;;;;;;;18.43;49.26;100648.88;5123753;27;20103;-64
2023/10/04 06:38:02;;;;;;;15.35;6.97;;;;;;;18.44;48.69;100647.00;5124063;27;20339;-64
2023/10/04 06:40:31;;;;;;;16.85;6.55;;;;;;;18.51;48.58;100642.53;5123226;27;20028;-64
2023/10/04 06:42:57;;;;;;;15.40;6.93;;;;;;;18.38;48.95;100643.25;5123705;27;20027;-63
2023/10/04 06:45:26;;;;;;;13.35;6.65;;;;;;;18.48;48.74;100646.44;5128414;27;20027;-64
2023/10/04 06:47:56;;;;;;;12.48;6.38;;;;;;;18.61;48.40;100643.09;5137302;27;20027;-63
2023/10/04 06:50:28;;;;;;;13.23;6.38;;;;;;;18.78;47.78;100643.69;5135769;27;20042;-63
2023/10/04 06:52:55;;;;;;;15.48;6.50;;;;;;;18.92;47.33;100637.38;5136071;27;20030;-64
2023/10/04 06:55:20;;;;;;;12.70;6.57;;;;;;;18.89;47.21;100640.47;5135618;27;20336;-64
2023/10/04 06:57:47;;;;;;;11.45;6.30;;;;;;;19.00;46.36;100641.78;5136826;27;20039;-63
2023/10/04 07:00:15;;;;;;;11.32;5.80;;;;;;;19.08;46.36;100634.41;5135966;27;20252;-64
2023/10/04 07:03:07;;;;;;;13.02;6.78;;;;;;;19.21;46.58;100636.34;5135819;27;20110;-64
2023/10/04 07:05:40;;;;;;;10.50;5.55;;;;;;;19.21;45.50;100625.63;5135548;27;20063;-64
2023/10/04 07:08:08;;;;;;;12.65;6.57;;;;;;;19.30;45.30;100624.44;5129400;27;20035;-63
2023/10/04 07:10:34;;;;;;;14.93;6.20;;;;;;;19.42;44.93;100628.22;5120516;27;20047;-63
2023/10/04 07:13:02;;;;;;;10.38;6.30;;;;;;;19.59;44.41;100628.75;5120353;27;20027;-64
2023/10/04 07:15:30;;;;;;;11.82;6.00;;;;;;;19.55;44.25;100630.19;5118432;28;20031;-64
2023/10/04 07:17:56;;;;;;;14.65;7.65;;;;;;;19.75;44.27;100627.59;5119769;27;20237;-63
2023/10/04 07:20:24;;;;;;;14.98;6.78;;;;;;;19.99;43.89;100626.25;5118300;28;20039;-64
2023/10/04 07:22:58;;;;;;;12.55;6.07;;;;;;;20.03;43.44;100622.13;5119246;27;20100;-64
2023/10/04 07:25:27;;;;;;;11.57;6.40;;;;;;;20.13;43.31;100621.75;5119403;27;20213;-63
2023/10/04 07:27:54;;;;;;;10.02;5.88;;;;;;;20.18;43.81;100617.41;5119894;27;20230;-64
2023/10/04 07:30:19;;;;;;;12.90;6.25;;;;;;;20.31;42.92;100622.81;5103816;28;20494;-63
2023/10/04 07:32:46;;;;;;;14.65;6.25;;;;;;;20.50;42.79;100615.03;5120184;27;20064;-64
2023/10/04 07:35:16;;;;;;;35.05;20.42;;;;;;;20.51;42.21;100608.59;5118594;28;20095;-65
2023/10/04 07:37:42;;;;;;;14.70;6.93;;;;;;;20.61;42.12;100609.03;5119868;27;20276;-64
2023/10/04 07:40:10;;;;;;;15.43;7.15;;;;;;;20.54;42.30;100617.09;5119331;28;20031;-64
2023/10/04 07:42:39;;;;;;;12.02;6.80;;;;;;;20.58;43.37;100620.19;5119889;27;20027;-64
2023/10/04 07:45:06;;;;;;;13.75;7.22;;;;;;;20.69;42.72;100615.03;5119401;28;20260;-64
2023/10/04 07:47:34;;;;;;;26.98;14.60;;;;;;;20.66;43.50;100612.75;5120064;27;20024;-64
2023/10/04 07:49:59;;;;;;;17.27;10.18;;;;;;;20.66;43.02;100611.91;5122612;27;20065;-64
2023/10/04 07:52:25;;;;;;;18.48;7.82;;;;;;;20.70;44.13;100613.16;5121512;27;20036;-64
2023/10/04 07:54:53;;;;;;;21.63;10.70;;;;;;;20.72;44.25;100611.09;5119072;27;20099;-64
2023/10/04 07:57:19;;;;;;;16.33;8.02;;;;;;;20.93;43.44;100610.09;5120337;27;20043;-65
2023/10/04 07:59:44;;;;;;;17.13;8.38;;;;;;;21.08;42.53;100604.47;5118265;28;20036;-64
2023/10/04 08:02:11;;;;;;;15.55;8.13;;;;;;;21.18;42.73;100607.56;5120061;28;20032;-64
2023/10/04 08:04:36;;;;;;;18.17;8.40;;;;;;;21.18;42.97;100613.78;5119101;28;20043;-64
2023/10/04 08:07:02;;;;;;;15.25;8.38;;;;;;;21.30;42.10;100601.34;5119004;27;20295;-62
2023/10/04 08:09:27;;;;;;;16.35;7.72;;;;;;;21.32;41.39;100593.88;5118836;28;20039;-62
2023/10/04 08:11:53;;;;;;;13.30;7.20;;;;;;;21.38;41.79;100600.28;5118815;27;20054;-62
2023/10/04 08:14:21;;;;;;;15.88;7.72;;;;;;;21.46;41.85;100591.97;5121731;27;20037;-63
2023/10/04 08:16:49;;;;;;;19.00;8.63;;;;;;;21.47;41.74;100593.63;5121975;27;20043;-62
2023/10/04 08:19:14;;;;;;;15.00;7.85;;;;;;;21.60;41.85;100592.75;5118634;28;20355;-62
2023/10/04 08:21:41;;;;;;;46.92;21.60;;;;;;;21.65;42.70;100592.94;5118388;27;20031;-62
2023/10/04 08:24:07;;;;;;;18.33;8.13;;;;;;;21.59;41.79;100585.69;5119538;27;20027;-62
2023/10/04 08:26:33;;;;;;;22.35;8.50;;;;;;;21.57;41.30;100585.09;5118568;27;20054;-62
2023/10/04 08:28:59;;;;;;;29.48;11.25;;;;;;;21.64;41.20;100575.09;5115835;28;20059;-63
2023/10/04 08:31:24;;;;;;;16.55;7.70;;;;;;;21.62;41.19;100571.81;5120792;28;20032;-64
2023/10/04 08:33:50;;;;;;;14.75;6.53;;;;;;;21.80;40.64;100563.84;5119459;28;20038;-64
2023/10/04 08:36:17;;;;;;;16.95;7.20;;;;;;;21.88;40.24;100566.31;5118547;28;20058;-64
2023/10/04 08:38:45;;;;;;;14.40;8.13;;;;;;;21.95;40.07;100561.69;5118421;28;20122;-64
2023/10/04 08:41:11;;;;;;;17.10;7.72;;;;;;;21.98;40.18;100565.84;5121660;28;20348;-64
2023/10/04 08:43:37;;;;;;;25.13;7.03;;;;;;;22.05;39.80;100565.81;5121846;28;20046;-64
2023/10/04 08:46:04;;;;;;;16.95;7.35;;;;;;;21.96;40.36;100557.13;5122199;28;20032;-64
2023/10/04 08:48:30;;;;;;;15.38;7.45;;;;;;;22.00;40.27;100555.66;5121720;28;20401;-64
2023/10/04 08:51:09;;;;;;;15.02;7.70;;;;;;;21.96;39.20;100547.19;5118129;28;20058;-63
2023/10/04 08:53:37;;;;;;;13.90;6.72;;;;;;;21.86;39.99;100548.69;5116411;28;20039;-64
2023/10/04 08:56:08;;;;;;;12.02;6.68;;;;;;;21.91;41.09;100541.59;5118331;28;20066;-64
2023/10/04 08:58:35;;;;;;;15.10;7.43;;;;;;;21.97;40.89;100537.22;5119698;28;20305;-65
2023/10/04 09:01:04;;;;;;;12.55;6.43;;;;;;;22.03;41.16;100544.47;5120397;28;20030;-64
2023/10/04 09:03:31;;;;;;;14.98;6.75;;;;;;;22.01;41.44;100543.00;5131675;27;20020;-64
2023/10/04 09:05:56;;;;;;;12.38;6.32;;;;;;;22.03;40.34;100538.25;5131588;27;20104;-64
2023/10/04 09:08:24;;;;;;;13.20;6.90;;;;;;;22.11;39.59;100535.28;5128315;27;20418;-63
2023/10/04 09:10:53;;;;;;;15.45;7.00;;;;;;;22.02;40.55;100526.59;5125657;27;20040;-63
2023/10/04 09:13:18;;;;;;;12.85;6.93;;;;;;;21.99;41.61;100527.88;5125617;27;20073;-64
2023/10/04 09:15:44;;;;;;;12.40;6.53;;;;;;;22.09;42.14;100519.31;5125711;27;20035;-64
2023/10/04 09:18:09;;;;;;;14.35;7.80;;;;;;;22.13;42.06;100523.25;5125339;27;20325;-61
2023/10/04 09:20:36;;;;;;;10.55;6.20;;;;;;;22.12;41.35;100531.56;5124937;27;20076;-64
2023/10/04 09:23:15;;;;;;;10.52;6.20;;;;;;;22.07;41.28;100521.41;5125176;27;20044;-64
2023/10/04 09:25:41;;;;;;;12.52;6.55;;;;;;;22.08;41.07;100516.84;5130471;27;20036;-64
2023/10/04 09:28:12;;;;;;;12.10;6.28;;;;;;;22.09;40.14;100522.03;5133344;27;20331;-64
2023/10/04 09:30:37;;;;;;;12.13;6.68;;;;;;;22.12;41.61;100516.19;5124524;27;20035;-61
2023/10/04 09:33:23;;;;;;;11.27;6.57;;;;;;;22.16;41.63;100519.28;5123896;27;20046;-62
2023/10/04 09:35:49;;;;;;;13.70;7.13;;;;;;;22.24;40.73;100510.91;5133196;27;20043;-65
2023/10/04 09:38:16;;;;;;;12.88;7.22;;;;;;;22.28;39.94;100523.75;5124561;27;20067;-64
2023/10/04 09:40:53;;;;;;;10.85;6.40;;;;;;;22.17;40.06;100513.66;5124167;27;20364;-63
2023/10/04 09:43:30;;;;;;;13.25;6.82;;;;;;;22.19;40.27;100511.56;5123584;27;20039;-64
2023/10/04 09:45:56;;;;;;;14.48;6.30;;;;;;;22.07;41.01;100505.22;5128837;27;20038;-64
2023/10/04 09:48:24;;;;;;;10.68;6.00;;;;;;;22.14;41.76;100507.88;5128099;27;20035;-63
2023/10/04 09:50:50;;;;;;;11.45;6.28;;;;;;;22.19;41.46;100505.34;5124560;27;20143;-63
2023/10/04 09:53:16;;;;;;;11.15;6.28;;;;;;;22.25;40.61;100499.91;5130382;27;20042;-63
2023/10/04 09:55:42;;;;;;;14.10;6.70;;;;;;;22.30;41.51;100494.69;5126594;27;20043;-63
2023/10/04 09:58:11;;;;;;;10.60;6.47;;;;;;;22.34;41.21;100494.22;5124993;27;20067;-64
2023/10/04 10:00:38;;;;;;;14.43;6.72;;;;;;;22.36;40.27;100484.03;5124959;27;20032;-64
2023/10/04 10:03:08;;;;;;;12.60;6.68;;;;;;;22.38;40.23;100485.47;5125320;27;20102;-64
2023/10/04 10:05:36;;;;;;;10.98;7.07;;;;;;;22.35;40.25;100480.53;5134346;27;20248;-63
2023/10/04 10:08:06;;;;;;;15.13;6.68;;;;;;;22.40;41.89;100474.47;5123940;27;20030;-64
2023/10/04 10:10:41;;;;;;;10.73;5.95;;;;;;;22.35;40.43;100472.44;5125096;27;20039;-64
2023/10/04 10:13:08;;;;;;;12.20;6.63;;;;;;;22.44;40.86;100467.56;5124960;27;20039;-64
2023/10/04 10:15:34;;;;;;;12.30;6.50;;;;;;;22.45;40.13;100467.34;5124709;27;20058;-63
2023/10/04 10:18:00;;;;;;;10.35;6.18;;;;;;;22.50;41.25;100470.22;5128904;27;20332;-63
2023/10/04 10:20:26;;;;;;;10.18;6.38;;;;;;;22.52;41.18;100460.00;5133495;27;20349;-64
2023/10/04 10:22:58;;;;;;;14.85;6.70;;;;;;;22.67;41.58;100466.94;5132875;27;20035;-64
2023/10/04 10:25:28;;;;;;;14.77;7.10;;;;;;;22.70;40.74;100456.50;5125152;27;20040;-63
2023/10/04 10:27:57;;;;;;;11.93;6.22;;;;;;;22.67;40.48;100448.84;5125324;27;20092;-64
2023/10/04 10:30:23;;;;;;;12.30;7.60;;;;;;;22.67;39.56;100445.34;5125035;27;20047;-63
2023/10/04 10:32:55;;;;;;;10.93;5.82;;;;;;;22.62;39.65;100436.03;5134199;27;20031;-63
2023/10/04 10:35:59;;;;;;;12.23;6.72;;;;;;;22.73;40.24;100436.34;5120092;27;20080;-64
2023/10/04 10:38:39;;;;;;;15.00;7.22;;;;;;;22.82;40.43;100432.31;5123790;27;20047;-64
2023/10/04 10:41:05;;;;;;;12.45;5.57;;;;;;;22.89;40.70;100427.69;5123295;27;20048;-64
2023/10/04 10:43:31;;;;;;;14.98;6.90;;;;;;;22.95;39.34;100418.69;5139133;27;20055;-64
2023/10/04 10:45:57;;;;;;;11.27;6.90;;;;;;;22.97;39.84;100419.28;5123404;27;20279;-63
2023/10/04 10:48:31;;;;;;;12.45;6.43;;;;;;;22.92;40.42;100416.44;5123670;27;20044;-63
2023/10/04 10:50:56;;;;;;;17.00;6.18;;;;;;;22.89;38.85;100403.41;5124061;27;20356;-63
2023/10/04 10:53:23;;;;;;;14.07;7.50;;;;;;;22.98;38.65;100412.00;5131866;27;20169;-64
2023/10/04 10:55:49;;;;;;;15.45;6.32;;;;;;;22.98;38.79;100412.00;5122322;27;20039;-63
2023/10/04 10:58:15;;;;;;;12.18;7.13;;;;;;;23.01;39.38;100406.97;5122480;27;20039;-64
2023/10/04 11:00:40;;;;;;;12.43;6.55;;;;;;;23.03;39.53;100402.19;5122829;27;20061;-63
2023/10/04 11:03:11;;;;;;;12.00;6.47;;;;;;;23.07;38.23;100399.84;5122600;27;20051;-63
2023/10/04 11:05:36;;;;;;;12.48;7.10;;;;;;;23.11;38.55;100391.06;5114182;27;20305;-64
2023/10/04 11:08:07;;;;;;;10.93;6.10;;;;;;;23.12;38.36;100389.19;5123405;27;20527;-64
2023/10/04 11:10:34;;;;;;;12.77;7.07;;;;;;;23.16;38.08;100388.50;5123645;27;20027;-63
2023/10/04 11:13:04;;;;;;;11.45;6.43;;;;;;;23.20;38.03;100384.28;5123751;27;20102;-63
2023/10/04 11:15:29;;;;;;;12.32;6.68;;;;;;;23.17;38.14;100381.22;5122849;27;20031;-64
2023/10/04 11:17:55;;;;;;;12.20;6.97;;;;;;;23.17;38.30;100379.34;5122648;27;20045;-64
2023/10/04 11:20:21;;;;;;;15.00;6.68;;;;;;;23.14;38.52;100381.66;5122589;27;20230;-63